Time;durP1;ratioP1;P1;durP2;ratioP2;P2;SDS_P1;SDS_P2;PMS_P1;PMS_P2;Temp;Humidity;BMP_temperature;BMP_pressure;BME280_temperature;BME280_humidity;BME280_pressure;Samples;Min_cycle;Max_cycle;Signal;HPM_P1;HPM_P2
2022/04/03 00:00:25;;;;;;;9.00;8.17;;;5.80;84.10;5.80;96120.00;;;;5053625;28;20296;-83
2022/04/03 00:02:52;;;;;;;9.30;8.50;;;5.80;84.20;5.80;96128.00;;;;5053753;28;20196;-84
2022/04/03 00:05:23;;;;;;;9.43;8.60;;;5.80;83.90;5.80;96119.00;;;;5053288;28;20645;-83
2022/04/03 00:07:50;;;;;;;9.77;8.87;;;5.80;83.90;5.80;96123.00;;;;5053807;28;20227;-83
2022/04/03 00:10:17;;;;;;;9.00;8.20;;;5.80;84.00;5.80;96125.00;;;;5053911;28;20208;-83
2022/04/03 00:12:46;;;;;;;9.80;8.90;;;5.80;84.00;5.80;96117.00;;;;5053100;28;20279;-84
2022/04/03 00:15:16;;;;;;;9.27;8.47;;;5.80;83.90;5.80;96134.00;;;;5051703;28;20693;-84
2022/04/03 00:17:44;;;;;;;9.17;8.27;;;5.70;83.80;5.80;96118.00;;;;5053710;28;20193;-84
2022/04/03 00:20:19;;;;;;;8.47;7.70;;;5.80;83.60;5.70;96123.00;;;;5054023;28;20723;-83
2022/04/03 00:22:49;;;;;;;8.20;7.50;;;5.80;83.70;5.70;96126.00;;;;5029466;23;20645;-87
2022/04/03 00:25:18;;;;;;;8.40;7.60;;;5.80;83.50;5.70;96126.00;;;;4951326;29;20282;-87
2022/04/03 00:27:46;;;;;;;8.10;7.40;;;5.90;83.50;5.70;96125.00;;;;4952896;28;20245;-87
2022/04/03 00:30:14;;;;;;;7.93;7.23;;;5.80;83.60;5.70;96134.00;;;;4951848;29;20207;-89
2022/04/03 00:32:41;;;;;;;8.47;7.73;;;5.80;83.60;5.70;96125.00;;;;4952046;28;20204;-88
2022/04/03 00:35:09;;;;;;;8.50;7.80;;;5.80;83.40;5.70;96122.00;;;;4951371;28;20303;-87
2022/04/03 00:37:36;;;;;;;8.27;7.47;;;5.80;83.50;5.70;96134.00;;;;4977169;23;20234;-85
2022/04/03 00:40:06;;;;;;;8.87;8.07;;;5.70;83.70;5.70;96134.00;;;;4969305;28;20275;-85
2022/04/03 00:42:35;;;;;;;8.23;7.53;;;5.80;83.80;5.70;96134.00;;;;4970314;28;20687;-85
2022/04/03 00:45:02;;;;;;;8.90;8.10;;;5.80;83.80;5.70;96133.00;;;;4970162;28;20665;-86
2022/04/03 00:47:32;;;;;;;9.33;8.63;;;5.80;83.70;5.70;96132.00;;;;4970256;28;20638;-85
2022/04/03 00:50:00;;;;;;;8.63;7.93;;;5.70;83.50;5.70;96134.00;;;;4970528;28;20209;-85
2022/04/03 00:52:28;;;;;;;8.73;8.03;;;5.70;83.70;5.70;96134.00;;;;4970400;28;20234;-85
2022/04/03 00:54:55;;;;;;;9.23;8.43;;;5.70;83.60;5.70;96129.00;;;;4970197;28;20210;-85
2022/04/03 00:57:25;;;;;;;8.83;8.03;;;5.70;83.60;5.60;96138.00;;;;4970426;28;20225;-85
2022/04/03 00:59:55;;;;;;;9.00;8.20;;;5.70;83.10;5.60;96126.00;;;;4970008;28;20199;-84
2022/04/03 01:02:22;;;;;;;9.37;8.57;;;5.70;83.40;5.60;96133.00;;;;4969241;28;20199;-85
2022/04/03 01:04:51;;;;;;;9.77;8.97;;;5.70;83.30;5.50;96135.00;;;;4977437;28;20192;-84
2022/04/03 01:07:20;;;;;;;9.07;8.30;;;5.60;83.10;5.50;96136.00;;;;4968810;28;20621;-85
2022/04/03 01:09:47;;;;;;;8.90;8.20;;;5.60;83.20;5.50;96129.00;;;;4969852;28;20199;-85
2022/04/03 01:12:14;;;;;;;9.17;8.37;;;5.60;83.50;5.50;96127.00;;;;4969615;28;20204;-85
2022/04/03 01:14:44;;;;;;;8.47;7.77;;;5.70;83.50;5.50;96129.00;;;;4970089;28;20690;-85
2022/04/03 01:17:14;;;;;;;9.10;8.27;;;5.60;83.60;5.50;96132.00;;;;4969335;28;20219;-85
2022/04/03 01:19:42;;;;;;;9.53;8.57;;;5.60;83.80;5.50;96133.00;;;;4970078;28;20307;-85
2022/04/03 01:22:12;;;;;;;8.70;8.00;;;5.70;83.70;5.50;96123.00;;;;4969736;28;20230;-85
2022/04/03 01:24:44;;;;;;;9.20;8.37;;;5.60;83.60;5.50;96135.00;;;;4969421;28;20886;-85
2022/04/03 01:27:12;;;;;;;8.60;7.90;;;5.60;83.50;5.50;96136.00;;;;4969331;28;20216;-85
2022/04/03 01:29:39;;;;;;;8.10;7.40;;;5.60;84.30;5.50;96144.00;;;;4969947;28;20229;-84
2022/04/03 01:32:10;;;;;;;8.80;8.00;;;5.60;83.50;5.50;96133.00;;;;4969828;28;20290;-85
2022/04/03 01:34:37;;;;;;;9.30;8.50;;;5.60;83.60;5.50;96137.00;;;;4972916;28;20703;-85
2022/04/03 01:37:04;;;;;;;8.97;8.27;;;5.60;83.50;5.50;96129.00;;;;4971714;28;20231;-85
2022/04/03 01:39:31;;;;;;;9.33;8.33;;;5.60;83.60;5.50;96142.00;;;;4972285;28;20660;-85
2022/04/03 01:41:59;;;;;;;9.27;8.37;;;5.60;83.60;5.50;96133.00;;;;4972943;28;20272;-84
2022/04/03 01:44:28;;;;;;;8.97;8.17;;;5.60;84.00;5.50;96142.00;;;;4972765;28;20316;-84
2022/04/03 01:46:56;;;;;;;10.20;9.30;;;5.60;83.90;5.50;96131.00;;;;4972580;28;20730;-84
2022/04/03 01:49:23;;;;;;;10.03;9.03;;;5.60;83.90;5.50;96144.00;;;;4973088;28;20199;-85
2022/04/03 01:51:50;;;;;;;10.13;9.13;;;5.50;83.70;5.40;96134.00;;;;4972860;28;20212;-84
2022/04/03 01:54:17;;;;;;;10.03;9.13;;;5.60;83.70;5.40;96140.00;;;;4972910;28;20203;-84
2022/04/03 01:56:45;;;;;;;9.37;8.57;;;5.60;83.70;5.40;96142.00;;;;4972597;28;20219;-84
2022/04/03 01:59:12;;;;;;;8.77;8.07;;;5.50;83.60;5.40;96138.00;;;;4972683;28;20231;-85
2022/04/03 02:01:40;;;;;;;9.83;8.93;;;5.50;83.50;5.40;96147.00;;;;4972788;28;20233;-85
2022/04/03 02:04:07;;;;;;;9.93;8.93;;;5.50;83.60;5.40;96143.00;;;;4973889;28;20288;-85
2022/04/03 02:06:34;;;;;;;10.83;9.47;;;5.50;83.80;5.40;96142.00;;;;4973455;28;20216;-84
2022/04/03 02:09:02;;;;;;;10.03;9.07;;;5.50;83.70;5.40;96159.00;;;;4972854;28;20211;-84
2022/04/03 02:11:29;;;;;;;9.30;8.50;;;5.50;83.80;5.40;96145.00;;;;4972604;28;20207;-84
2022/04/03 02:13:57;;;;;;;8.97;8.17;;;5.50;83.80;5.40;96151.00;;;;4972651;28;20200;-84
2022/04/03 02:16:24;;;;;;;9.27;8.40;;;5.50;83.90;5.40;96149.00;;;;4973043;28;20708;-85
2022/04/03 02:18:55;;;;;;;9.20;8.40;;;5.60;83.70;5.40;96153.00;;;;4972148;28;20695;-84
2022/04/03 02:21:22;;;;;;;9.13;8.23;;;5.60;84.00;5.40;96148.00;;;;4972498;28;20317;-84
2022/04/03 02:23:51;;;;;;;9.00;8.20;;;5.50;83.80;5.40;96150.00;;;;4972477;28;20204;-84
2022/04/03 02:26:19;;;;;;;8.70;7.90;;;5.50;83.80;5.50;96150.00;;;;4972557;28;20821;-84
2022/04/03 02:28:46;;;;;;;8.17;7.47;;;5.50;83.80;5.40;96150.00;;;;4972510;28;20271;-84
2022/04/03 02:31:14;;;;;;;8.47;7.70;;;5.60;83.90;5.50;96152.00;;;;4972273;28;20208;-84
2022/04/03 02:33:41;;;;;;;8.77;7.97;;;5.70;83.50;5.50;96151.00;;;;4972424;28;20207;-85
2022/04/03 02:36:09;;;;;;;7.63;6.93;;;5.60;83.60;5.40;96160.00;;;;4971473;28;20660;-85
2022/04/03 02:38:36;;;;;;;7.57;6.97;;;5.60;83.50;5.50;96160.00;;;;4972457;28;20270;-84
2022/04/03 02:41:04;;;;;;;8.73;7.87;;;5.60;83.60;5.50;96162.00;;;;4972205;28;20224;-85
2022/04/03 02:43:31;;;;;;;7.83;7.13;;;5.50;83.60;5.40;96169.00;;;;4971811;28;20235;-85
2022/04/03 02:45:58;;;;;;;7.97;7.17;;;5.60;84.20;5.50;96165.00;;;;4971058;28;20283;-85
2022/04/03 02:48:25;;;;;;;8.60;7.80;;;5.60;83.70;5.40;96171.00;;;;4972187;28;20212;-85
2022/04/03 02:50:52;;;;;;;7.80;7.10;;;5.60;83.90;5.50;96177.00;;;;4971588;28;20691;-85
2022/04/03 02:53:21;;;;;;;7.80;7.20;;;5.60;83.90;5.50;96164.00;;;;4971880;28;20203;-85
2022/04/03 02:55:48;;;;;;;7.80;7.13;;;5.60;83.90;5.50;96163.00;;;;4971300;28;20286;-84
2022/04/03 02:58:15;;;;;;;7.53;6.83;;;5.60;83.80;5.50;96165.00;;;;4971806;28;20219;-85
2022/04/03 03:00:42;;;;;;;8.23;7.40;;;5.60;83.70;5.50;96170.00;;;;4971997;28;20291;-85
2022/04/03 03:03:09;;;;;;;8.03;7.33;;;5.60;83.50;5.50;96177.00;;;;4971725;28;20219;-85
2022/04/03 03:05:36;;;;;;;7.83;7.13;;;5.50;83.30;5.40;96174.00;;;;4970240;28;20200;-85
2022/04/03 03:08:04;;;;;;;7.37;6.73;;;5.50;83.10;5.40;96174.00;;;;4971758;28;20226;-85
2022/04/03 03:10:32;;;;;;;7.83;7.13;;;5.50;83.30;5.40;96184.00;;;;4971406;28;20211;-85
2022/04/03 03:13:00;;;;;;;8.10;7.30;;;5.50;83.30;5.40;96180.00;;;;4971086;28;20207;-84
2022/04/03 03:15:28;;;;;;;7.67;6.97;;;5.50;83.20;5.40;96181.00;;;;5041036;28;20740;-85
2022/04/03 03:17:55;;;;;;;7.90;6.97;;;5.50;83.40;5.40;96179.00;;;;5073024;28;20708;-85
2022/04/03 03:20:23;;;;;;;8.37;7.57;;;5.50;83.50;5.40;96182.00;;;;5072340;28;20211;-85
2022/04/03 03:22:51;;;;;;;8.30;7.57;;;5.50;83.40;5.40;96190.00;;;;5049027;28;20231;-85
2022/04/03 03:25:18;;;;;;;7.90;7.20;;;5.50;83.40;5.40;96185.00;;;;4971616;28;20697;-84
2022/04/03 03:27:46;;;;;;;7.97;7.27;;;5.50;83.60;5.40;96194.00;;;;4971326;28;20220;-84
2022/04/03 03:30:13;;;;;;;8.13;7.33;;;5.50;83.50;5.40;96193.00;;;;4971319;28;20209;-85
2022/04/03 03:32:41;;;;;;;8.20;7.40;;;5.50;83.70;5.40;96189.00;;;;4971353;28;20642;-85
2022/04/03 03:35:09;;;;;;;8.07;7.37;;;5.60;83.80;5.40;96175.00;;;;4971494;28;20196;-85
2022/04/03 03:37:37;;;;;;;7.83;7.13;;;5.50;83.80;5.50;96189.00;;;;4971410;28;20223;-84
2022/04/03 03:40:11;;;;;;;8.70;7.90;;;5.50;83.70;5.50;96187.00;;;;4971710;28;20657;-84
2022/04/03 03:42:40;;;;;;;8.13;7.33;;;5.50;83.60;5.50;96185.00;;;;4970814;28;20284;-85
2022/04/03 03:45:10;;;;;;;9.80;8.40;;;5.50;83.80;5.50;96197.00;;;;4970662;28;20290;-85
2022/04/03 03:47:37;;;;;;;8.83;8.03;;;5.50;83.70;5.50;96195.00;;;;4971638;28;20219;-85
2022/04/03 03:50:05;;;;;;;9.80;8.87;;;5.50;83.80;5.50;96202.00;;;;4971029;28;20214;-84
2022/04/03 03:52:33;;;;;;;8.37;7.67;;;5.60;83.70;5.50;96184.00;;;;4970941;28;20689;-85
2022/04/03 03:55:00;;;;;;;8.43;7.73;;;5.60;83.70;5.50;96196.00;;;;4971140;28;20206;-85
2022/04/03 03:57:27;;;;;;;9.23;8.30;;;5.60;83.70;5.50;96199.00;;;;4970799;28;20229;-84
2022/04/03 03:59:54;;;;;;;9.00;8.17;;;5.50;83.70;5.50;96210.00;;;;4970993;28;20210;-85
2022/04/03 04:02:22;;;;;;;8.73;7.83;;;5.60;83.70;5.50;96215.00;;;;4969660;28;20215;-85
2022/04/03 04:04:49;;;;;;;8.43;7.60;;;5.60;83.80;5.50;96213.00;;;;4970933;28;20545;-84
2022/04/03 04:07:16;;;;;;;9.20;8.20;;;5.60;83.70;5.50;96209.00;;;;4970885;28;20235;-85
2022/04/03 04:09:44;;;;;;;9.37;8.23;;;5.60;83.70;5.50;96214.00;;;;4970647;28;20196;-85
2022/04/03 04:12:11;;;;;;;7.90;7.20;;;5.60;83.70;5.60;96217.00;;;;4970990;28;20669;-85
2022/04/03 04:14:39;;;;;;;8.57;7.77;;;5.60;83.80;5.60;96216.00;;;;4970896;28;20196;-84
2022/04/03 04:17:08;;;;;;;9.17;8.07;;;6.10;84.10;5.60;96220.00;;;;4970680;28;20318;-84
2022/04/03 04:19:37;;;;;;;8.67;7.90;;;5.60;84.00;5.60;96223.00;;;;4970724;28;20207;-85
2022/04/03 04:22:04;;;;;;;9.50;8.60;;;5.70;83.90;5.60;96220.00;;;;4970364;28;20227;-84
2022/04/03 04:24:32;;;;;;;8.97;8.07;;;5.60;83.60;5.60;96232.00;;;;4970436;28;20199;-85
2022/04/03 04:26:59;;;;;;;8.40;7.53;;;5.60;82.90;5.50;96238.00;;;;4969942;28;20227;-85
2022/04/03 04:29:26;;;;;;;7.50;6.93;;;5.60;83.20;5.50;96239.00;;;;4970868;28;20195;-85
2022/04/03 04:31:53;;;;;;;8.63;7.83;;;5.60;83.40;5.50;96236.00;;;;4970755;28;20207;-84
2022/04/03 04:34:20;;;;;;;7.80;6.90;;;5.60;83.50;5.60;96237.00;;;;4970261;28;20739;-85
2022/04/03 04:36:49;;;;;;;7.60;6.90;;;5.60;83.50;5.60;96241.00;;;;4969848;28;20227;-85
2022/04/03 04:39:16;;;;;;;8.67;7.87;;;5.60;82.90;5.50;96242.00;;;;4970583;28;20222;-84
2022/04/03 04:41:43;;;;;;;7.47;6.87;;;5.60;82.90;5.50;96243.00;;;;4970194;28;20219;-85
2022/04/03 04:44:11;;;;;;;7.20;6.70;;;5.60;82.60;5.50;96239.00;;;;4969963;28;20286;-85
2022/04/03 04:46:38;;;;;;;8.17;7.37;;;5.60;82.60;5.40;96241.00;;;;4970715;28;20211;-85
2022/04/03 04:49:05;;;;;;;7.60;6.90;;;5.60;82.90;5.40;96253.00;;;;4971408;28;20203;-85
2022/04/03 04:51:32;;;;;;;7.30;6.70;;;5.60;83.20;5.40;96249.00;;;;4971043;28;20211;-85
2022/04/03 04:54:00;;;;;;;7.73;6.93;;;6.00;83.20;5.40;96245.00;;;;4956671;28;20200;-84
2022/04/03 04:56:28;;;;;;;8.27;6.30;;;5.60;83.30;5.40;96248.00;;;;4950232;29;20319;-84
2022/04/03 04:58:54;;;;;;;7.33;6.60;;;5.50;83.20;5.40;96253.00;;;;4950857;29;20203;-85
2022/04/03 05:01:21;;;;;;;7.90;7.20;;;5.60;83.00;5.40;96256.00;;;;4950524;29;20200;-85
2022/04/03 05:03:48;;;;;;;10.40;7.30;;;5.50;83.20;5.50;96267.00;;;;4964824;28;20203;-85
2022/04/03 05:06:16;;;;;;;7.57;6.87;;;5.50;83.40;5.50;96267.00;;;;4969770;28;20202;-84
2022/04/03 05:08:43;;;;;;;7.90;7.20;;;5.60;83.60;5.50;96266.00;;;;4972508;28;20203;-84
2022/04/03 05:11:13;;;;;;;7.60;6.90;;;5.60;83.80;5.60;96270.00;;;;4973583;28;20209;-85
2022/04/03 05:13:42;;;;;;;8.17;7.37;;;5.60;83.60;5.60;96276.00;;;;4973285;28;20722;-85
2022/04/03 05:16:09;;;;;;;8.07;6.60;;;5.60;83.50;5.60;96273.00;;;;4972724;28;20208;-85
2022/04/03 05:18:36;;;;;;;7.27;6.67;;;5.60;83.60;5.60;96274.00;;;;4973385;28;20230;-85
2022/04/03 05:21:04;;;;;;;7.10;6.43;;;5.60;83.20;5.60;96275.00;;;;4973416;28;20204;-85
2022/04/03 05:23:32;;;;;;;8.37;7.60;;;5.60;83.30;5.60;96279.00;;;;4973247;28;20238;-85
2022/04/03 05:25:59;;;;;;;8.10;7.33;;;5.60;83.50;5.60;96282.00;;;;4972857;28;20207;-85
2022/04/03 05:28:27;;;;;;;8.83;7.97;;;5.60;83.40;5.60;96283.00;;;;4973465;28;20204;-85
2022/04/03 05:30:54;;;;;;;9.03;8.23;;;5.70;83.40;5.60;96287.00;;;;4972897;28;20204;-85
2022/04/03 05:33:22;;;;;;;9.30;8.40;;;5.60;83.50;5.60;96284.00;;;;4972745;28;20302;-85
2022/04/03 05:35:50;;;;;;;9.00;8.10;;;5.60;83.30;5.60;96280.00;;;;4973315;28;20234;-85
2022/04/03 05:38:17;;;;;;;10.60;8.63;;;5.90;83.60;5.60;96287.00;;;;4973249;28;20231;-85
2022/04/03 05:40:44;;;;;;;9.33;8.37;;;5.70;83.40;5.70;96294.00;;;;4971741;28;20282;-85
2022/04/03 05:43:11;;;;;;;9.33;8.53;;;5.70;83.50;5.70;96294.00;;;;4972776;28;20238;-85
2022/04/03 05:45:43;;;;;;;9.27;8.37;;;5.70;83.90;5.70;96306.00;;;;4972941;28;20199;-85
2022/04/03 05:48:10;;;;;;;9.60;8.80;;;5.70;83.50;5.70;96296.00;;;;4972569;28;20228;-85
2022/04/03 05:50:37;;;;;;;9.37;8.47;;;5.50;83.30;5.70;96311.00;;;;4971687;28;20614;-85
2022/04/03 05:53:05;;;;;;;10.17;8.83;;;5.70;83.60;5.80;96309.00;;;;4972894;28;20210;-85
2022/04/03 05:55:33;;;;;;;9.00;8.10;;;5.70;83.60;5.80;96308.00;;;;4972868;28;20728;-85
2022/04/03 05:58:00;;;;;;;9.60;8.60;;;5.80;83.80;5.80;96307.00;;;;4972758;28;20239;-85
2022/04/03 06:00:27;;;;;;;9.10;8.20;;;5.80;83.30;5.70;96303.00;;;;4972964;28;20669;-86
2022/04/03 06:02:57;;;;;;;9.00;8.10;;;5.80;83.40;5.70;96315.00;;;;4973092;28;20250;-86
2022/04/03 06:05:26;;;;;;;8.97;8.07;;;5.80;83.60;5.80;96319.00;;;;4972528;28;20184;-86
2022/04/03 06:07:55;;;;;;;9.20;8.40;;;5.80;83.50;5.80;96331.00;;;;4971934;28;20222;-85
2022/04/03 06:10:24;;;;;;;8.20;7.37;;;5.80;84.00;5.80;96322.00;;;;4972624;28;20219;-86
2022/04/03 06:12:57;;;;;;;8.07;7.27;;;5.80;83.60;5.80;96325.00;;;;4972810;28;20286;-85
2022/04/03 06:15:26;;;;;;;8.10;7.30;;;5.90;83.40;5.80;96327.00;;;;4972678;28;20580;-86
2022/04/03 06:17:56;;;;;;;7.50;6.77;;;5.80;83.50;5.80;96331.00;;;;4972716;28;20219;-85
2022/04/03 06:20:24;;;;;;;7.87;7.17;;;5.80;83.40;5.90;96322.00;;;;4972604;28;20199;-85
2022/04/03 06:22:51;;;;;;;7.90;7.10;;;5.90;83.50;5.90;96333.00;;;;4972180;28;20219;-86
2022/04/03 06:25:20;;;;;;;9.43;7.10;;;5.90;83.40;5.90;96333.00;;;;4971918;28;20615;-86
2022/04/03 06:27:47;;;;;;;7.17;6.47;;;5.90;83.70;5.90;96345.00;;;;4972436;28;20278;-85
2022/04/03 06:30:15;;;;;;;7.87;7.07;;;5.90;83.50;6.00;96338.00;;;;4972442;28;20210;-85
2022/04/03 06:32:42;;;;;;;7.37;6.77;;;5.90;83.70;6.00;96342.00;;;;4972527;28;20210;-86
2022/04/03 06:35:13;;;;;;;8.20;7.40;;;6.00;83.70;6.00;96337.00;;;;4972719;28;20202;-86
2022/04/03 06:37:41;;;;;;;9.30;8.03;;;6.00;83.30;6.00;96345.00;;;;4974951;23;20231;-85
2022/04/03 06:40:10;;;;;;;8.27;7.37;;;6.00;83.70;6.10;96348.00;;;;4951923;29;20254;-86
2022/04/03 06:42:37;;;;;;;8.03;7.20;;;6.00;83.60;6.10;96346.00;;;;4952091;28;20228;-85
2022/04/03 06:45:05;;;;;;;9.17;8.23;;;6.10;84.00;6.30;96353.00;;;;4952019;28;20204;-85
2022/04/03 06:47:33;;;;;;;8.77;7.93;;;6.10;84.10;6.40;96355.00;;;;4952570;28;20220;-85
2022/04/03 06:50:00;;;;;;;8.07;7.37;;;6.20;84.60;6.60;96352.00;;;;4952447;29;20208;-85
2022/04/03 06:52:28;;;;;;;8.63;7.80;;;6.30;84.80;6.70;96362.00;;;;4952542;28;20207;-85
2022/04/03 06:54:55;;;;;;;9.73;8.80;;;6.40;84.80;6.90;96360.00;;;;4952580;28;20200;-84
2022/04/03 06:57:22;;;;;;;9.70;8.70;;;6.50;84.80;7.00;96367.00;;;;4952238;29;20216;-85
2022/04/03 06:59:50;;;;;;;9.37;8.47;;;6.50;85.20;7.10;96365.00;;;;4952301;28;20672;-85
2022/04/03 07:02:17;;;;;;;11.07;9.13;;;6.60;84.80;7.20;96370.00;;;;4951461;28;20226;-85
2022/04/03 07:04:45;;;;;;;10.93;8.53;;;6.70;84.60;7.30;96376.00;;;;5045509;28;20192;-85
2022/04/03 07:07:12;;;;;;;10.70;9.07;;;6.80;84.40;7.40;96385.00;;;;5053130;28;20256;-84
2022/04/03 07:09:41;;;;;;;10.60;9.47;;;6.90;85.20;7.40;96389.00;;;;5053187;28;20197;-84
2022/04/03 07:12:10;;;;;;;9.80;8.90;;;6.90;84.30;7.50;96388.00;;;;5053094;28;20203;-85
2022/04/03 07:14:37;;;;;;;11.23;10.00;;;7.00;84.20;7.50;96387.00;;;;5052990;28;20556;-87
2022/04/03 07:17:04;;;;;;;10.60;9.57;;;7.10;84.10;7.60;96394.00;;;;5053154;28;20221;-85
2022/04/03 07:19:32;;;;;;;10.47;9.47;;;7.10;83.70;7.60;96388.00;;;;5052752;28;20193;-85
2022/04/03 07:21:59;;;;;;;10.70;9.60;;;7.20;83.30;7.60;96396.00;;;;5052567;28;21119;-89
2022/04/03 07:24:27;;;;;;;12.93;9.93;;;7.20;82.90;7.60;96397.00;;;;5052357;28;20188;-85
2022/04/03 07:26:56;;;;;;;12.13;9.53;;;7.30;82.60;7.60;96394.00;;;;5052708;28;20227;-85
2022/04/03 07:29:24;;;;;;;11.30;9.17;;;7.30;83.20;7.60;96396.00;;;;5052902;28;20200;-85
2022/04/03 07:31:51;;;;;;;10.90;9.80;;;7.30;83.20;7.60;96402.00;;;;5052381;28;20676;-84
2022/04/03 07:34:19;;;;;;;10.27;9.27;;;7.30;83.40;7.70;96408.00;;;;5053009;28;20208;-86
2022/04/03 07:36:46;;;;;;;10.03;9.03;;;7.30;82.40;7.70;96415.00;;;;5052143;28;20216;-85
2022/04/03 07:39:15;;;;;;;9.63;8.73;;;7.40;82.40;7.70;96410.00;;;;5052489;28;20618;-84
2022/04/03 07:41:42;;;;;;;9.27;8.37;;;7.30;82.80;7.70;96416.00;;;;5052595;28;20302;-85
2022/04/03 07:44:12;;;;;;;9.13;8.20;;;7.40;82.30;7.70;96422.00;;;;5052558;28;20399;-86
2022/04/03 07:46:39;;;;;;;9.33;8.40;;;7.40;82.20;7.70;96427.00;;;;5052545;28;20200;-85
2022/04/03 07:49:07;;;;;;;9.40;8.50;;;7.40;82.20;7.70;96415.00;;;;5052516;28;20311;-85
2022/04/03 07:51:34;;;;;;;8.87;8.07;;;7.40;83.40;7.70;96421.00;;;;5052717;28;20207;-85
2022/04/03 07:54:01;;;;;;;9.43;8.53;;;7.30;82.00;7.80;96426.00;;;;4979850;28;20211;-85
2022/04/03 07:56:28;;;;;;;9.97;8.97;;;7.40;82.30;7.80;96423.00;;;;4951484;28;20200;-85
2022/04/03 07:58:55;;;;;;;9.50;8.60;;;7.50;82.60;7.80;96425.00;;;;4951137;28;20204;-86
2022/04/03 08:01:24;;;;;;;8.97;8.17;;;7.40;83.80;7.90;96432.00;;;;4951621;29;20212;-85
2022/04/03 08:03:51;;;;;;;8.60;7.80;;;7.50;82.10;7.90;96449.00;;;;4937186;29;20229;-84
2022/04/03 08:06:18;;;;;;;9.20;8.30;;;7.50;81.90;7.90;96452.00;;;;4932549;29;20311;-86
2022/04/03 08:08:45;;;;;;;8.47;7.77;;;7.50;82.00;8.00;96451.00;;;;4932194;29;20227;-87
2022/04/03 08:11:12;;;;;;;8.40;7.70;;;7.50;82.40;8.10;96460.00;;;;4932848;29;20278;-85
2022/04/03 08:13:39;;;;;;;8.57;7.77;;;7.60;84.20;8.10;96459.00;;;;4932099;28;20666;-84
2022/04/03 08:16:07;;;;;;;7.83;7.13;;;7.70;83.20;8.20;96464.00;;;;4942042;28;20282;-88
2022/04/03 08:18:35;;;;;;;8.03;7.27;;;7.70;82.60;8.30;96459.00;;;;4932091;28;20223;-88
2022/04/03 08:21:02;;;;;;;7.00;6.40;;;7.80;83.00;8.50;96465.00;;;;4938721;28;20566;-85
2022/04/03 08:23:29;;;;;;;7.10;6.50;;;7.80;83.50;8.50;96458.00;;;;4951710;28;20587;-85
2022/04/03 08:25:57;;;;;;;7.07;6.47;;;7.90;81.60;8.50;96464.00;;;;4947953;28;20200;-85
2022/04/03 08:28:24;;;;;;;7.37;6.67;;;8.00;81.90;8.40;96465.00;;;;4948666;28;20234;-85
2022/04/03 08:30:52;;;;;;;7.10;6.50;;;8.00;82.00;8.40;96460.00;;;;4950847;28;20208;-85
2022/04/03 08:33:19;;;;;;;7.20;6.60;;;8.60;81.90;8.40;96462.00;;;;4950629;29;20208;-88
2022/04/03 08:35:50;;;;;;;6.93;6.17;;;8.00;82.00;8.40;96476.00;;;;4942584;28;20208;-85
2022/04/03 08:38:18;;;;;;;6.90;6.30;;;8.00;80.80;8.30;96480.00;;;;4956757;28;20227;-85
2022/04/03 08:40:45;;;;;;;7.40;6.67;;;8.00;81.10;8.30;96480.00;;;;4942537;28;20208;-86
2022/04/03 08:43:13;;;;;;;6.87;5.87;;;8.00;80.50;8.30;96485.00;;;;4952472;28;20224;-85
2022/04/03 08:45:40;;;;;;;6.67;6.07;;;8.00;81.10;8.40;96486.00;;;;4954432;29;20291;-87
2022/04/03 08:48:09;;;;;;;6.73;6.13;;;8.00;82.00;8.50;96492.00;;;;4953915;29;20223;-89
2022/04/03 08:50:39;;;;;;;6.73;6.13;;;8.10;81.90;8.60;96490.00;;;;4954465;29;20200;-87
2022/04/03 08:53:09;;;;;;;6.53;5.93;;;8.10;82.60;8.60;96493.00;;;;4954102;29;20212;-87
2022/04/03 08:55:37;;;;;;;7.30;6.60;;;8.20;82.60;8.80;96501.00;;;;4954245;28;20203;-87
2022/04/03 08:58:05;;;;;;;6.30;5.80;;;8.20;82.90;8.90;96497.00;;;;4954460;29;20216;-86
2022/04/03 09:00:33;;;;;;;6.77;6.17;;;8.30;82.60;9.00;96500.00;;;;4954637;28;20208;-87
2022/04/03 09:03:00;;;;;;;6.23;5.63;;;8.40;83.10;9.10;96502.00;;;;4954309;29;20235;-86
2022/04/03 09:05:40;;;;;;;6.60;6.00;;;8.40;82.80;9.20;96490.00;;;;4948817;29;20211;-85
2022/04/03 09:08:11;;;;;;;6.10;5.50;;;8.50;82.90;9.30;96494.00;;;;4934749;29;20319;-84
2022/04/03 09:10:39;;;;;;;6.20;5.70;;;8.60;82.80;9.40;96497.00;;;;4934856;28;20189;-85
2022/04/03 09:13:06;;;;;;;5.43;5.03;;;8.80;83.10;9.50;96494.00;;;;4934533;28;20215;-84
2022/04/03 09:15:34;;;;;;;5.00;4.60;;;8.80;82.10;9.60;96501.00;;;;4935433;28;20236;-85
2022/04/03 09:18:03;;;;;;;5.80;5.20;;;8.90;83.10;9.70;96505.00;;;;4954076;28;20628;-85
2022/04/03 09:20:33;;;;;;;4.63;4.33;;;9.00;82.50;9.70;96506.00;;;;4953718;28;20971;-85
2022/04/03 09:23:02;;;;;;;4.63;4.23;;;9.10;82.00;9.70;96502.00;;;;4953379;28;20239;-84
2022/04/03 09:25:33;;;;;;;4.77;4.03;;;9.10;80.70;9.70;96511.00;;;;4953676;29;20833;-84
2022/04/03 09:28:03;;;;;;;4.90;4.50;;;9.10;79.60;9.60;96512.00;;;;4954139;29;20586;-85
2022/04/03 09:30:35;;;;;;;4.90;4.40;;;9.10;80.10;9.60;96512.00;;;;4953652;29;20204;-84
2022/04/03 09:33:03;;;;;;;6.03;5.00;;;9.10;79.80;9.70;96513.00;;;;4953697;29;20215;-87
2022/04/03 09:35:32;;;;;;;5.10;4.70;;;9.20;80.90;9.80;96515.00;;;;4953832;28;20669;-85
2022/04/03 09:38:12;;;;;;;4.63;4.30;;;9.20;81.60;10.00;96511.00;;;;4953727;29;20611;-84
2022/04/03 09:40:43;;;;;;;4.87;4.47;;;9.30;80.90;10.10;96516.00;;;;4953937;29;20185;-85
2022/04/03 09:43:23;;;;;;;5.00;4.57;;;9.40;81.30;10.10;96515.00;;;;4953475;29;20231;-85
2022/04/03 09:45:53;;;;;;;4.80;4.40;;;9.50;79.40;10.10;96523.00;;;;4953353;29;20672;-85
2022/04/03 09:48:27;;;;;;;4.80;4.40;;;9.60;81.10;10.20;96519.00;;;;4953280;28;20226;-86
2022/04/03 09:51:06;;;;;;;4.87;4.47;;;9.70;81.20;10.20;96521.00;;;;4952488;29;20223;-84
2022/04/03 09:53:43;;;;;;;4.90;4.50;;;9.80;80.00;10.30;96525.00;;;;4951548;28;20234;-85
2022/04/03 09:56:14;;;;;;;5.00;4.60;;;9.90;81.70;10.40;96535.00;;;;4954036;29;20200;-84
2022/04/03 09:59:00;;;;;;;5.53;4.87;;;10.00;81.80;10.50;96534.00;;;;4952804;28;20729;-85
2022/04/03 10:01:31;;;;;;;5.03;4.63;;;10.10;80.90;10.60;96532.00;;;;4944931;28;20204;-85
2022/04/03 10:04:00;;;;;;;5.27;4.87;;;10.20;81.10;10.60;96528.00;;;;4949047;28;20230;-85
2022/04/03 10:06:29;;;;;;;4.93;4.53;;;10.10;80.90;10.60;96529.00;;;;4953158;28;20235;-85
2022/04/03 10:08:58;;;;;;;4.50;4.10;;;10.20;79.40;10.50;96532.00;;;;4952673;28;20200;-85
2022/04/03 10:11:28;;;;;;;4.77;4.37;;;10.20;78.60;10.60;96534.00;;;;4953312;28;20291;-85
2022/04/03 10:13:55;;;;;;;4.50;4.20;;;10.20;78.80;10.60;96527.00;;;;4953140;28;20209;-85
2022/04/03 10:16:23;;;;;;;5.60;5.17;;;10.20;79.00;10.60;96530.00;;;;4952898;29;20207;-85
2022/04/03 10:18:52;;;;;;;5.80;5.30;;;10.20;80.10;10.70;96527.00;;;;4953273;29;20200;-84
2022/04/03 10:21:28;;;;;;;4.87;4.47;;;10.30;82.80;10.90;96530.00;;;;4952933;28;20207;-84
2022/04/03 10:24:04;;;;;;;5.50;5.00;;;10.50;82.40;11.00;96525.00;;;;4952983;29;20230;-84
2022/04/03 10:26:36;;;;;;;4.50;4.20;;;10.70;83.20;11.10;96529.00;;;;4952670;28;20554;-84
2022/04/03 10:29:09;;;;;;;3.77;3.57;;;11.60;84.30;11.30;96522.00;;;;4952744;28;20216;-85
2022/04/03 10:31:38;;;;;;;4.23;3.90;;;11.10;80.00;11.30;96520.00;;;;4953914;28;20477;-86
2022/04/03 10:34:06;;;;;;;3.80;3.50;;;11.30;82.00;11.30;96529.00;;;;4947426;28;20633;-86
2022/04/03 10:36:37;;;;;;;4.30;3.93;;;11.40;80.10;11.30;96526.00;;;;4955148;28;20296;-85
2022/04/03 10:39:06;;;;;;;4.33;3.97;;;11.40;79.60;11.30;96526.00;;;;4969856;28;20202;-85
2022/04/03 10:41:39;;;;;;;4.23;3.93;;;11.40;80.20;11.30;96516.00;;;;4953269;28;20204;-86
2022/04/03 10:44:18;;;;;;;4.43;4.03;;;11.50;80.00;11.40;96518.00;;;;4954535;28;20246;-85
2022/04/03 10:47:22;;;;;;;4.00;3.70;;;11.60;78.70;11.40;96524.00;;;;4962803;28;20306;-89
2022/04/03 10:50:00;;;;;;;4.33;3.93;;;11.70;77.80;11.60;96525.00;;;;4952648;28;20204;-86
2022/04/03 10:52:56;;;;;;;3.63;3.33;;;11.80;80.50;11.70;96526.00;;;;4953363;28;20665;-86
2022/04/03 10:55:29;;;;;;;3.97;3.67;;;11.90;79.20;11.80;96525.00;;;;4953886;29;20204;-86
2022/04/03 10:58:03;;;;;;;3.97;3.60;;;12.00;78.00;11.80;96528.00;;;;4953492;28;20285;-86
2022/04/03 11:00:37;;;;;;;4.37;4.00;;;11.90;77.90;11.80;96528.00;;;;4953064;28;20279;-87
2022/04/03 11:03:36;;;;;;;3.57;3.37;;;11.90;77.20;11.70;96531.00;;;;4944125;29;20207;-86
2022/04/03 11:06:34;;;;;;;6.10;4.83;;;11.90;74.50;11.70;96536.00;;;;4932503;29;20197;-85
2022/04/03 11:09:13;;;;;;;4.53;3.70;;;11.70;73.10;11.60;96530.00;;;;4951060;28;20218;-86
2022/04/03 11:11:59;;;;;;;4.83;4.33;;;11.60;75.50;11.50;96530.00;;;;4952576;29;20180;-85
2022/04/03 11:15:13;;;;;;;3.53;3.23;;;11.50;73.80;11.40;96539.00;;;;4952868;29;20296;-85